Time;durP1;ratioP1;P1;durP2;ratioP2;P2;SDS_P1;SDS_P2;PMS_P1;PMS_P2;Temp;Humidity;BMP_temperature;BMP_pressure;BME280_temperature;BME280_humidity;BME280_pressure;Samples;Min_cycle;Max_cycle;Signal;HPM_P1;HPM_P2
2021/09/22 05:01:47;;;;;;;13.75;12.40;;;;;;;11.71;74.98;95190.38;5520048;23;20148;-92
2021/09/22 05:04:12;;;;;;;12.85;11.82;;;;;;;11.83;74.82;95201.97;4957320;28;20127;-90
2021/09/22 05:06:38;;;;;;;12.52;11.43;;;;;;;11.88;74.99;95210.06;4937290;28;20105;-85
2021/09/22 05:09:03;;;;;;;13.23;11.95;;;;;;;11.71;75.03;95190.38;4944405;29;20063;-93
2021/09/22 05:11:29;;;;;;;13.45;11.65;;;;;;;11.88;74.44;95195.28;4935246;29;20042;-91
2021/09/22 05:13:54;;;;;;;11.95;11.00;;;;;;;12.05;73.73;95204.59;4950656;29;20090;-94
2021/09/22 05:16:20;;;;;;;14.57;12.50;;;;;;;12.19;73.44;95203.03;4918874;29;20520;-93
2021/09/22 05:18:45;;;;;;;12.27;11.18;;;;;;;12.27;73.92;95217.72;4930631;28;20034;-90
2021/09/22 05:21:11;;;;;;;11.90;11.00;;;;;;;12.05;74.23;95186.41;4969563;28;20444;-91
2021/09/22 05:23:36;;;;;;;11.98;10.63;;;;;;;12.15;74.25;95222.53;4953476;28;20101;-92
2021/09/22 05:26:01;;;;;;;13.18;11.95;;;;;;;11.96;74.54;95218.59;4951869;28;20524;-93
2021/09/22 05:28:27;;;;;;;13.38;11.18;;;;;;;11.85;73.61;95187.03;4961437;28;20413;-92
2021/09/22 05:30:52;;;;;;;56.08;13.18;;;;;;;11.85;75.35;95218.97;4916438;29;20050;-92
2021/09/22 05:33:18;;;;;;;14.05;11.07;;;;;;;11.93;75.04;95221.53;4933648;29;20098;-87
2021/09/22 05:35:43;;;;;;;13.32;12.32;;;;;;;11.89;74.80;95211.66;4933800;29;20035;-87
2021/09/22 05:38:09;;;;;;;13.63;12.25;;;;;;;11.97;75.44;95211.63;4942438;28;20109;-90
2021/09/22 05:40:34;;;;;;;16.02;13.98;;;;;;;11.94;74.83;95192.03;4970946;28;20027;-93
2021/09/22 05:42:59;;;;;;;13.55;12.35;;;;;;;12.18;74.71;95214.38;4935370;28;20026;-90
2021/09/22 05:45:25;;;;;;;12.73;11.60;;;;;;;12.08;74.58;95201.63;4971021;28;20038;-94
2021/09/22 05:47:50;;;;;;;11.55;10.55;;;;;;;12.01;74.50;95202.50;4940240;28;20556;-91
2021/09/22 05:50:16;;;;;;;11.57;10.38;;;;;;;12.03;74.26;95213.53;4941469;28;20027;-92
2021/09/22 05:52:41;;;;;;;11.18;10.30;;;;;;;12.04;73.87;95212.56;4940424;28;20027;-92
2021/09/22 05:55:07;;;;;;;63.95;12.10;;;;;;;11.99;74.47;95220.03;4973942;28;20031;-88
2021/09/22 05:57:33;;;;;;;10.90;9.98;;;;;;;11.97;74.33;95207.25;4956807;28;20026;-93
2021/09/22 05:59:58;;;;;;;10.40;9.60;;;;;;;12.00;74.53;95212.09;4956194;28;20023;-93
2021/09/22 06:02:24;;;;;;;11.95;10.75;;;;;;;12.11;75.07;95226.44;4938195;29;20058;-91
2021/09/22 06:04:49;;;;;;;12.68;11.68;;;;;;;11.80;75.13;95190.16;4953428;29;20481;-90
2021/09/22 06:07:15;;;;;;;37.35;13.85;;;;;;;11.71;75.49;95200.75;4953921;29;20031;-95
2021/09/22 06:09:40;;;;;;;13.52;12.30;;;;;;;11.65;75.84;95197.03;4917936;29;20265;-92
2021/09/22 06:12:06;;;;;;;36.35;11.40;;;;;;;11.77;75.22;95215.63;4950071;29;20410;-91
2021/09/22 06:14:31;;;;;;;140.10;16.83;;;;;;;11.82;74.58;95214.13;4952363;29;20031;-90
2021/09/22 06:16:57;;;;;;;12.43;11.23;;;;;;;11.75;73.96;95191.66;4936841;29;20020;-92
2021/09/22 06:19:22;;;;;;;12.35;11.25;;;;;;;11.95;73.68;95192.81;4953872;29;20043;-93
2021/09/22 06:21:47;;;;;;;13.63;11.93;;;;;;;12.35;73.88;95209.88;4934885;29;20023;-93
2021/09/22 06:24:18;;;;;;;11.70;10.60;;;;;;;12.34;73.01;95172.69;4950497;28;20533;-91
2021/09/22 06:26:44;;;;;;;12.07;11.07;;;;;;;12.50;72.45;95195.94;4950911;29;20742;-80
2021/09/22 06:29:09;;;;;;;10.18;9.45;;;;;;;12.59;70.02;95202.66;4920343;29;20042;-86
2021/09/22 06:31:36;;;;;;;11.18;10.20;;;;;;;12.58;69.94;95169.09;4951153;29;20042;-84
2021/09/22 06:34:02;;;;;;;10.95;10.05;;;;;;;12.73;70.01;95193.28;4936883;29;20047;-92
2021/09/22 06:36:27;;;;;;;10.90;9.80;;;;;;;12.78;69.52;95209.13;4968800;28;20031;-88
2021/09/22 06:38:53;;;;;;;57.28;10.98;;;;;;;12.54;67.93;95183.41;4951040;29;20027;-87
2021/09/22 06:41:18;;;;;;;8.88;8.13;;;;;;;12.55;67.41;95200.63;4952180;29;20059;-90
2021/09/22 06:43:44;;;;;;;9.45;8.63;;;;;;;12.53;68.95;95189.56;4946198;29;20038;-90
2021/09/22 06:46:09;;;;;;;8.55;7.95;;;;;;;12.75;68.32;95191.31;4921180;29;20497;-89
2021/09/22 06:48:35;;;;;;;23.60;8.23;;;;;;;12.66;67.07;95180.19;4950594;28;20035;-80
2021/09/22 06:51:01;;;;;;;48.95;8.73;;;;;;;12.65;67.43;95199.34;4936084;29;20032;-88
2021/09/22 06:53:26;;;;;;;7.70;6.97;;;;;;;12.57;65.54;95194.25;4931466;29;20764;-87
2021/09/22 06:55:52;;;;;;;92.47;9.88;;;;;;;12.51;66.08;95204.53;4933553;29;20035;-82
2021/09/22 06:58:17;;;;;;;23.75;8.00;;;;;;;12.51;66.35;95194.97;4934408;29;20031;-80
2021/09/22 07:00:43;;;;;;;33.47;7.07;;;;;;;12.57;65.79;95199.44;4942853;29;20024;-90
2021/09/22 07:03:11;;;;;;;7.65;7.05;;;;;;;12.50;66.68;95201.13;4970853;28;20030;-90
2021/09/22 07:05:38;;;;;;;7.68;6.68;;;;;;;12.38;65.63;95184.38;4954625;28;20138;-87
2021/09/22 07:08:04;;;;;;;296.80;25.55;;;;;;;12.45;66.46;95198.28;4955643;28;20058;-90
2021/09/22 07:10:31;;;;;;;118.97;13.63;;;;;;;12.37;65.76;95198.31;4970587;28;20142;-89
2021/09/22 07:12:57;;;;;;;7.38;6.68;;;;;;;12.44;65.31;95188.84;4971730;28;20031;-87
2021/09/22 07:15:23;;;;;;;7.07;6.45;;;;;;;12.52;64.31;95185.38;4952919;28;20030;-91
2021/09/22 07:17:48;;;;;;;8.05;7.38;;;;;;;12.65;64.40;95195.94;4970055;28;20019;-89
2021/09/22 07:20:14;;;;;;;8.05;7.35;;;;;;;12.80;64.52;95188.19;4971751;28;20034;-90
2021/09/22 07:22:39;;;;;;;7.65;6.97;;;;;;;12.92;64.32;95195.34;4969870;28;20500;-90
2021/09/22 07:25:05;;;;;;;7.40;6.80;;;;;;;12.81;63.97;95185.38;4971713;28;20110;-88
2021/09/22 07:27:31;;;;;;;7.05;6.50;;;;;;;12.82;63.97;95181.81;4936058;28;20030;-87
2021/09/22 07:29:56;;;;;;;49.38;11.15;;;;;;;12.65;62.77;95185.56;4954283;28;20489;-87
2021/09/22 07:32:22;;;;;;;7.97;7.28;;;;;;;12.75;63.00;95190.53;4968108;28;20396;-87
2021/09/22 07:34:47;;;;;;;7.18;6.57;;;;;;;12.35;64.11;95144.94;4969741;28;20041;-85
2021/09/22 07:37:13;;;;;;;210.85;17.05;;;;;;;12.77;64.22;95189.34;4939276;28;20031;-88
2021/09/22 07:39:39;;;;;;;28.75;8.00;;;;;;;12.83;62.55;95183.44;4969392;28;20028;-83
2021/09/22 07:42:05;;;;;;;184.20;15.13;;;;;;;12.90;61.91;95194.75;4938096;28;20039;-84
2021/09/22 07:44:30;;;;;;;43.08;7.93;;;;;;;12.82;60.93;95181.81;4952624;28;20033;-88
2021/09/22 07:46:56;;;;;;;62.58;9.68;;;;;;;13.00;61.39;95182.25;4953260;28;20023;-94
2021/09/22 07:49:21;;;;;;;7.78;7.07;;;;;;;13.04;61.27;95182.72;4967683;28;20477;-88
2021/09/22 07:51:47;;;;;;;8.10;7.30;;;;;;;13.11;60.70;95181.84;4969997;28;20027;-88
2021/09/22 07:54:12;;;;;;;9.23;8.43;;;;;;;13.09;60.58;95186.44;4970903;28;20500;-88
2021/09/22 07:56:38;;;;;;;7.78;6.65;;;;;;;12.99;60.84;95170.25;4952667;28;20034;-92
2021/09/22 07:59:03;;;;;;;8.07;7.43;;;;;;;13.11;60.97;95184.44;4938869;28;20066;-92
2021/09/22 08:01:29;;;;;;;47.67;8.10;;;;;;;12.99;61.67;95172.88;4969590;28;20416;-88
2021/09/22 08:03:55;;;;;;;62.58;9.20;;;;;;;12.99;62.69;95185.88;4938877;28;20070;-91
2021/09/22 08:06:23;;;;;;;437.52;32.38;;;;;;;12.89;62.20;95180.13;4961998;28;20083;-84
2021/09/22 08:08:48;;;;;;;8.55;7.90;;;;;;;13.00;62.22;95184.06;4933663;29;20027;-92
2021/09/22 08:11:14;;;;;;;48.90;9.35;;;;;;;12.91;62.14;95152.13;4948725;29;20528;-89
2021/09/22 08:13:39;;;;;;;53.95;9.27;;;;;;;12.97;62.36;95154.03;4950546;28;20027;-92
2021/09/22 08:16:05;;;;;;;13.43;8.70;;;;;;;13.12;62.44;95178.28;4934845;29;20416;-91
2021/09/22 08:18:30;;;;;;;11.27;8.35;;;;;;;13.04;62.18;95174.91;4947722;29;20104;-92
2021/09/22 08:20:56;;;;;;;8.75;8.05;;;;;;;13.06;62.57;95176.38;4934454;29;20489;-85
2021/09/22 08:23:22;;;;;;;9.20;8.40;;;;;;;13.09;64.29;95173.44;4950596;29;20061;-91
2021/09/22 08:25:48;;;;;;;9.30;8.50;;;;;;;13.01;63.30;95157.88;4951017;29;20043;-88
2021/09/22 08:28:13;;;;;;;196.48;15.43;;;;;;;13.23;63.18;95168.41;4922479;28;20031;-84
2021/09/22 08:30:39;;;;;;;113.95;14.18;;;;;;;13.22;62.87;95167.59;4957191;28;20510;-85
2021/09/22 08:33:05;;;;;;;9.02;8.23;;;;;;;13.28;62.96;95169.47;4950004;29;20612;-83
2021/09/22 08:35:30;;;;;;;11.48;8.48;;;;;;;13.24;62.85;95149.19;4949803;29;20038;-92
2021/09/22 08:37:56;;;;;;;72.75;11.93;;;;;;;13.22;62.19;95135.56;4934968;29;20027;-90
2021/09/22 08:40:21;;;;;;;223.25;17.85;;;;;;;13.23;61.95;95139.78;4932211;29;20027;-86
2021/09/22 08:42:47;;;;;;;10.18;8.48;;;;;;;13.41;61.73;95150.59;4950256;29;20125;-90
2021/09/22 08:45:12;;;;;;;85.60;11.65;;;;;;;13.53;61.26;95142.13;4933443;29;20046;-83
2021/09/22 08:47:44;;;;;;;162.07;14.43;;;;;;;13.34;60.21;95134.91;4934106;29;20031;-88
2021/09/22 08:50:11;;;;;;;8.75;8.10;;;;;;;13.37;60.53;95144.94;4917688;29;20439;-91
2021/09/22 08:52:37;;;;;;;440.27;25.55;;;;;;;13.45;61.28;95144.06;4936680;28;20078;-91
2021/09/22 08:55:05;;;;;;;120.25;14.80;;;;;;;13.58;60.98;95146.78;4950453;29;20489;-91
2021/09/22 08:57:30;;;;;;;56.05;9.95;;;;;;;13.54;60.91;95143.75;4965012;28;20503;-92
2021/09/22 08:59:56;;;;;;;262.17;17.48;;;;;;;13.40;60.63;95147.19;4950638;28;20110;-89
2021/09/22 09:02:21;;;;;;;334.15;24.10;;;;;;;13.33;60.22;95132.47;4941871;28;20054;-91
2021/09/22 09:05:11;;;;;;;43.90;9.15;;;;;;;13.44;59.10;95126.81;4932802;28;20054;-89
2021/09/22 09:07:56;;;;;;;62.15;10.68;;;;;;;13.33;59.70;95145.47;4948779;28;20407;-90
2021/09/22 09:10:24;;;;;;;10.00;9.18;;;;;;;13.60;59.05;95144.81;4932312;28;20038;-84
2021/09/22 09:13:03;;;;;;;9.85;9.00;;;;;;;13.63;59.15;95139.22;4958204;28;20110;-90
2021/09/22 09:15:32;;;;;;;33.85;9.90;;;;;;;13.78;58.25;95131.34;4949669;28;20039;-87
2021/09/22 09:18:00;;;;;;;47.47;10.82;;;;;;;13.90;58.32;95103.84;4943312;28;20425;-90
2021/09/22 09:20:26;;;;;;;130.30;13.13;;;;;;;13.93;57.95;95114.69;4956920;28;20083;-91
2021/09/22 09:23:14;;;;;;;132.13;12.93;;;;;;;14.12;56.93;95132.28;4939040;28;20030;-90
2021/09/22 09:25:45;;;;;;;43.30;10.15;;;;;;;14.06;57.03;95125.22;4961274;28;20485;-90
2021/09/22 09:28:19;;;;;;;45.47;10.10;;;;;;;14.09;57.43;95124.84;4968594;28;20030;-84
2021/09/22 09:30:46;;;;;;;144.35;14.07;;;;;;;13.99;58.29;95106.13;4960111;28;20039;-78
2021/09/22 09:33:37;;;;;;;8.73;7.93;;;;;;;14.21;57.61;95123.34;4957640;28;20053;-89
2021/09/22 09:36:23;;;;;;;9.27;8.57;;;;;;;14.39;56.97;95112.47;4940543;28;20050;-89
2021/09/22 09:39:07;;;;;;;185.23;16.15;;;;;;;14.49;56.21;95114.75;4933462;29;20404;-90
2021/09/22 09:41:33;;;;;;;9.75;8.85;;;;;;;14.62;57.03;95120.03;4959607;28;20035;-85
2021/09/22 09:44:00;;;;;;;9.93;9.02;;;;;;;14.40;57.37;95111.50;4949552;28;20023;-87
2021/09/22 09:46:26;;;;;;;8.55;7.85;;;;;;;14.45;56.05;95103.88;4937420;29;20497;-86
2021/09/22 09:49:06;;;;;;;42.13;9.27;;;;;;;14.25;56.05;95108.16;4920061;28;20050;-85
2021/09/22 09:51:40;;;;;;;8.43;7.63;;;;;;;14.07;56.89;95084.34;4950200;28;20508;-88
2021/09/22 09:54:07;;;;;;;37.17;8.55;;;;;;;14.15;56.50;95097.25;4942472;28;20027;-91
2021/09/22 09:56:33;;;;;;;105.32;11.20;;;;;;;14.36;57.16;95107.66;4924643;28;20069;-88
2021/09/22 09:58:59;;;;;;;155.15;15.25;;;;;;;14.19;56.81;95107.09;4932272;28;20535;-85
2021/09/22 10:01:38;;;;;;;9.00;8.30;;;;;;;14.34;57.14;95098.41;4929876;28;20142;-81
2021/09/22 10:04:05;;;;;;;161.38;12.43;;;;;;;14.34;57.81;95091.41;4938563;28;20131;-88
2021/09/22 10:06:30;;;;;;;9.40;7.25;;;;;;;14.54;56.95;95097.56;4929849;28;20035;-81
2021/09/22 10:08:56;;;;;;;110.45;10.18;;;;;;;14.26;57.66;95073.25;4936266;29;20504;-90
2021/09/22 10:11:22;;;;;;;8.73;8.02;;;;;;;14.44;57.45;95101.50;4923765;29;20035;-89
2021/09/22 10:13:47;;;;;;;7.97;7.28;;;;;;;14.54;57.36;95089.75;4924957;28;20485;-88
2021/09/22 10:16:14;;;;;;;8.40;7.70;;;;;;;14.45;57.15;95098.69;4907440;28;20038;-86
2021/09/22 10:18:40;;;;;;;30.05;8.65;;;;;;;14.36;56.44;95089.41;4925534;28;20022;-83
2021/09/22 10:21:07;;;;;;;8.68;7.85;;;;;;;14.41;58.07;95100.06;4926451;28;20094;-90
2021/09/22 10:23:33;;;;;;;7.82;7.32;;;;;;;14.68;57.05;95067.13;4937262;28;20045;-87
2021/09/22 10:25:58;;;;;;;9.25;7.22;;;;;;;14.68;56.06;95095.81;4927880;28;20477;-90
2021/09/22 10:28:38;;;;;;;7.85;7.25;;;;;;;14.74;56.32;95090.63;4931363;28;20022;-89
2021/09/22 10:31:04;;;;;;;45.75;8.90;;;;;;;14.78;56.68;95099.69;4927821;28;20042;-87
2021/09/22 10:33:34;;;;;;;402.55;22.63;;;;;;;14.55;55.92;95067.06;4924116;28;20031;-87
2021/09/22 10:36:04;;;;;;;134.77;11.02;;;;;;;14.66;55.74;95082.97;4952696;28;20094;-86
2021/09/22 10:38:29;;;;;;;124.38;11.73;;;;;;;14.96;56.55;95085.34;4935057;28;20050;-81
2021/09/22 10:41:01;;;;;;;7.93;7.28;;;;;;;14.99;54.70;95079.72;4955628;28;20074;-89
2021/09/22 10:43:28;;;;;;;8.02;7.10;;;;;;;14.97;54.96;95066.88;4931478;28;20027;-88
2021/09/22 10:46:06;;;;;;;49.33;9.02;;;;;;;14.87;56.45;95078.66;4944188;28;20093;-90
2021/09/22 10:48:33;;;;;;;7.35;6.65;;;;;;;14.80;56.57;95054.38;4966441;28;20027;-89
2021/09/22 10:51:04;;;;;;;284.75;19.38;;;;;;;14.71;56.78;95038.06;4918793;28;20073;-87
2021/09/22 10:53:32;;;;;;;7.55;6.88;;;;;;;14.98;56.38;95067.69;4934474;28;20591;-89
2021/09/22 10:56:09;;;;;;;31.25;8.32;;;;;;;15.00;56.68;95066.47;4957349;28;20513;-87
2021/09/22 10:58:54;;;;;;;35.15;8.43;;;;;;;15.21;54.92;95060.34;4959260;28;20641;-89
2021/09/22 11:01:32;;;;;;;94.35;10.07;;;;;;;15.07;54.27;95053.47;4942157;29;20098;-80
2021/09/22 11:04:07;;;;;;;66.32;9.23;;;;;;;14.70;54.73;95046.91;4958985;28;20027;-89
2021/09/22 11:06:42;;;;;;;250.15;19.45;;;;;;;14.88;55.10;95065.44;4948220;28;20023;-91
2021/09/22 11:09:10;;;;;;;7.40;6.80;;;;;;;14.67;55.37;95042.88;4953357;28;20023;-85
2021/09/22 11:11:58;;;;;;;422.58;23.35;;;;;;;14.64;54.80;95063.31;4953697;28;20027;-90
2021/09/22 11:14:27;;;;;;;36.65;7.22;;;;;;;14.91;55.78;95062.44;4953187;28;20039;-83
2021/09/22 11:17:13;;;;;;;63.45;8.07;;;;;;;15.00;54.65;95069.09;4955801;28;20030;-90
2021/09/22 11:19:40;;;;;;;48.53;9.25;;;;;;;14.60;55.30;95049.88;4951583;28;20027;-93
2021/09/22 11:22:09;;;;;;;35.05;7.03;;;;;;;14.49;55.53;95053.00;4954819;28;20101;-85
2021/09/22 11:24:35;;;;;;;258.27;17.23;;;;;;;14.81;55.74;95061.19;4922258;28;20030;-85
2021/09/22 11:27:05;;;;;;;497.25;26.02;;;;;;;14.72;54.87;95073.56;4913565;29;20035;-89
2021/09/22 11:29:48;;;;;;;;;;;;;;;14.72;55.11;95076.19;4918129;29;20027;-89
2021/09/22 11:32:34;;;;;;;16.02;7.05;;;;;;;14.65;55.20;95070.13;4958862;28;19979;-85
2021/09/22 11:35:07;;;;;;;6.35;5.93;;;;;;;14.55;55.21;95061.84;4938227;29;20179;-89
2021/09/22 11:37:35;;;;;;;41.72;7.53;;;;;;;14.42;56.35;95054.75;4945098;28;20046;-85
2021/09/22 11:40:11;;;;;;;39.03;7.25;;;;;;;14.58;56.66;95061.47;4920180;29;20479;-90
2021/09/22 11:43:05;;;;;;;5.80;5.40;;;;;;;14.63;56.87;95059.91;4934221;28;20059;-89
2021/09/22 11:45:40;;;;;;;7.05;6.45;;;;;;;14.52;57.30;95052.63;4930481;29;20070;-88
2021/09/22 11:48:10;;;;;;;7.57;6.75;;;;;;;14.34;57.91;95048.91;4961168;28;20037;-82
2021/09/22 11:50:37;;;;;;;;;;;;;;;14.49;58.10;95054.81;4942495;29;20074;-93
2021/09/22 11:53:06;;;;;;;190.00;14.48;;;;;;;14.42;57.29;95051.34;4937931;28;19918;-87
2021/09/22 11:55:32;;;;;;;8.23;6.53;;;;;;;14.18;57.40;95024.75;4936317;28;20026;-90
2021/09/22 11:57:57;;;;;;;68.45;8.05;;;;;;;14.23;58.16;95050.19;4937802;28;20070;-85
2021/09/22 12:00:24;;;;;;;7.32;5.85;;;;;;;14.13;58.15;95028.88;4936463;28;20041;-88
2021/09/22 12:02:50;;;;;;;25.48;7.38;;;;;;;14.09;57.97;95045.91;4966611;28;20047;-88
2021/09/22 12:05:16;;;;;;;73.43;10.40;;;;;;;13.83;59.16;95030.91;4950031;29;20035;-88
2021/09/22 12:07:41;;;;;;;9.02;6.35;;;;;;;13.85;59.61;95035.91;4949771;29;20637;-88
2021/09/22 12:10:07;;;;;;;8.13;6.70;;;;;;;13.92;59.87;95050.59;4967438;28;20027;-91
2021/09/22 12:12:37;;;;;;;47.45;8.02;;;;;;;13.68;60.93;95037.97;4931002;29;20069;-90
2021/09/22 12:15:03;;;;;;;8.85;7.22;;;;;;;13.69;59.79;95027.38;4949144;29;20508;-91
2021/09/22 12:17:30;;;;;;;16.83;6.30;;;;;;;13.75;60.99;95033.63;4930569;29;20032;-92
2021/09/22 12:19:56;;;;;;;6.38;5.88;;;;;;;13.91;60.02;95037.75;4950413;29;20023;-92
2021/09/22 12:22:27;;;;;;;6.53;5.43;;;;;;;13.96;59.31;95033.59;4943925;29;20103;-87
2021/09/22 12:24:53;;;;;;;7.40;5.05;;;;;;;13.96;59.37;95014.56;4932329;29;20031;-89
2021/09/22 12:27:20;;;;;;;7.93;5.55;;;;;;;14.10;59.59;95021.44;4941641;29;20027;-89
2021/09/22 12:30:13;;;;;;;34.90;5.72;;;;;;;14.18;58.21;95035.16;4930564;29;20025;-91
2021/09/22 12:32:51;;;;;;;20.90;5.45;;;;;;;13.96;58.20;95012.78;4941414;29;20036;-92
2021/09/22 12:35:17;;;;;;;94.22;8.80;;;;;;;14.00;59.32;95023.63;4932969;29;20042;-92
2021/09/22 12:37:43;;;;;;;46.15;7.65;;;;;;;13.85;58.97;95008.06;4934342;29;20019;-89
2021/09/22 12:40:11;;;;;;;255.50;14.93;;;;;;;13.89;58.85;95034.53;4919846;29;20043;-91
2021/09/22 12:42:46;;;;;;;5.47;4.97;;;;;;;13.95;58.72;95044.19;4933053;28;20074;-89
2021/09/22 12:45:13;;;;;;;7.50;5.88;;;;;;;13.76;58.83;95029.22;4933319;29;20071;-91
2021/09/22 12:47:49;;;;;;;8.55;7.68;;;;;;;13.87;59.42;95032.09;4914273;29;20577;-88
2021/09/22 12:50:30;;;;;;;6.78;6.07;;;;;;;13.46;60.22;95016.34;4931377;29;20028;-92
2021/09/22 12:53:16;;;;;;;135.48;10.32;;;;;;;13.54;60.24;95031.84;4915484;29;20027;-88
2021/09/22 12:55:49;;;;;;;22.08;6.25;;;;;;;13.46;61.10;95028.56;4913328;29;20488;-89
2021/09/22 12:58:16;;;;;;;58.17;6.90;;;;;;;13.42;60.73;95028.13;4900169;29;20027;-84
2021/09/22 13:00:54;;;;;;;4.78;4.28;;;;;;;13.53;60.77;95034.63;4898219;29;20036;-85
2021/09/22 13:03:42;;;;;;;6.10;5.25;;;;;;;13.49;61.05;95034.19;4933417;29;20062;-88
2021/09/22 13:06:11;;;;;;;5.97;5.43;;;;;;;13.44;61.05;95036.56;4950003;29;20034;-88
2021/09/22 13:09:02;;;;;;;54.13;8.18;;;;;;;13.28;61.17;95026.41;4951013;29;20082;-90
2021/09/22 13:11:38;;;;;;;7.32;6.60;;;;;;;13.24;61.90;94993.13;4949995;29;20079;-89
2021/09/22 13:14:17;;;;;;;5.93;5.35;;;;;;;13.32;61.53;95019.84;4916430;29;20509;-89
2021/09/22 13:16:50;;;;;;;33.53;6.40;;;;;;;13.30;63.45;95026.19;4948393;29;20409;-88
2021/09/22 13:19:16;;;;;;;5.93;5.43;;;;;;;13.34;62.28;95027.44;4922859;29;20835;-90
2021/09/22 13:21:42;;;;;;;144.05;10.68;;;;;;;13.31;62.02;95026.03;4915427;29;20075;-88
2021/09/22 13:24:12;;;;;;;15.93;6.13;;;;;;;13.15;62.80;95013.25;4926555;29;20043;-88
2021/09/22 13:26:40;;;;;;;6.47;5.97;;;;;;;12.99;63.08;95003.06;4926687;29;20043;-90
2021/09/22 13:29:06;;;;;;;9.68;7.45;;;;;;;13.06;62.66;95003.94;4946141;29;20034;-88
2021/09/22 13:31:36;;;;;;;26.25;6.97;;;;;;;12.97;62.57;94994.66;4909101;29;20106;-91
2021/09/22 13:34:02;;;;;;;7.05;6.32;;;;;;;12.94;62.45;94988.00;4922862;29;20024;-88
2021/09/22 13:36:28;;;;;;;7.28;6.55;;;;;;;13.06;63.48;94996.13;4935425;28;20027;-86
2021/09/22 13:38:54;;;;;;;7.22;6.60;;;;;;;13.07;62.77;95003.75;4924237;29;20773;-88
2021/09/22 13:41:20;;;;;;;13.05;5.88;;;;;;;13.03;63.35;95004.31;4922731;29;20024;-90
2021/09/22 13:43:46;;;;;;;6.20;5.70;;;;;;;12.83;64.14;94980.69;4937243;29;21513;-90
2021/09/22 13:46:11;;;;;;;144.55;16.70;;;;;;;12.91;63.92;95008.34;4925805;29;20481;-91
2021/09/22 13:48:37;;;;;;;201.45;14.55;;;;;;;12.82;65.30;95010.28;4927316;29;20031;-82
2021/09/22 13:51:03;;;;;;;15.60;6.30;;;;;;;12.65;65.74;95008.84;4939814;29;20035;-90
2021/09/22 13:53:28;;;;;;;11.05;8.70;;;;;;;12.56;66.24;94994.34;4922127;29;20078;-88
2021/09/22 13:55:54;;;;;;;199.23;16.17;;;;;;;12.48;66.73;95004.88;4924248;29;20024;-90
2021/09/22 13:58:20;;;;;;;23.35;9.05;;;;;;;12.64;67.55;95015.88;4942138;28;20020;-89
2021/09/22 14:00:45;;;;;;;287.52;17.40;;;;;;;12.30;68.08;94988.84;4940110;29;20042;-89
2021/09/22 14:03:11;;;;;;;8.70;7.88;;;;;;;12.07;69.54;94974.16;4962989;28;20479;-89
2021/09/22 14:05:37;;;;;;;7.97;7.38;;;;;;;12.19;70.91;95002.28;4929528;28;20050;-90
2021/09/22 14:08:03;;;;;;;30.83;9.90;;;;;;;12.13;72.13;95004.63;4937684;29;20475;-93
2021/09/22 14:10:30;;;;;;;181.60;16.17;;;;;;;12.10;73.41;95025.72;4952712;28;20114;-90
2021/09/22 14:12:59;;;;;;;11.07;10.07;;;;;;;12.16;74.60;95047.59;4931357;29;20027;-90
2021/09/22 14:15:33;;;;;;;12.45;11.23;;;;;;;11.90;77.35;95040.22;4944547;29;20039;-90
2021/09/22 14:17:58;;;;;;;13.10;11.73;;;;;;;11.89;78.54;95040.38;4943727;29;20027;-91
2021/09/22 14:20:24;;;;;;;88.60;16.10;;;;;;;11.65;80.52;95018.03;4936956;29;20032;-92
2021/09/22 14:22:49;;;;;;;11.30;10.13;;;;;;;11.58;81.76;95046.47;4940086;29;20032;-92
2021/09/22 14:25:16;;;;;;;11.90;10.88;;;;;;;11.26;83.54;95025.16;4917829;29;20035;-90
2021/09/22 14:27:42;;;;;;;11.13;10.02;;;;;;;11.33;83.69;95049.41;4956673;28;20473;-92
2021/09/22 14:30:08;;;;;;;71.28;11.52;;;;;;;11.07;84.61;95050.56;4931982;29;20525;-92
2021/09/22 14:32:34;;;;;;;9.07;8.27;;;;;;;11.17;84.77;95067.66;4952184;29;20031;-89
2021/09/22 14:34:59;;;;;;;8.88;8.18;;;;;;;11.13;84.05;95053.41;4953407;28;20406;-91
2021/09/22 14:37:25;;;;;;;8.63;7.88;;;;;;;11.07;85.01;95070.47;4918868;29;20095;-91
2021/09/22 14:39:50;;;;;;;11.05;8.75;;;;;;;10.93;85.98;95072.00;4932676;29;20055;-91
2021/09/22 14:42:16;;;;;;;9.20;8.50;;;;;;;10.94;85.81;95076.22;4928102;29;20039;-92
2021/09/22 14:44:41;;;;;;;9.68;8.18;;;;;;;10.83;86.41;95062.81;4935707;29;20043;-90
2021/09/22 14:47:08;;;;;;;8.35;7.65;;;;;;;10.89;86.11;95075.06;4939529;29;20188;-90
2021/09/22 14:49:35;;;;;;;9.10;8.40;;;;;;;10.85;86.24;95072.03;4948117;28;20046;-91
2021/09/22 14:52:00;;;;;;;8.13;7.50;;;;;;;10.74;86.91;95079.38;4930720;29;20170;-91
2021/09/22 14:54:26;;;;;;;8.70;7.30;;;;;;;10.53;87.43;95069.59;4962306;28;20031;-89
2021/09/22 14:56:51;;;;;;;8.00;7.40;;;;;;;10.65;88.19;95072.63;4916764;29;20075;-93
2021/09/22 14:59:17;;;;;;;8.68;7.80;;;;;;;10.56;88.30;95075.22;4925295;29;20027;-91
2021/09/22 15:01:42;;;;;;;9.88;8.88;;;;;;;10.31;88.75;95070.28;4945962;29;20070;-90
2021/09/22 15:04:08;;;;;;;8.30;7.50;;;;;;;10.31;87.98;95052.16;4952953;29;20039;-90
2021/09/22 15:06:33;;;;;;;8.18;7.57;;;;;;;10.18;88.56;95044.13;4940738;29;20031;-93
2021/09/22 15:08:59;;;;;;;8.88;8.07;;;;;;;10.21;89.67;95072.28;4923501;29;20035;-91
2021/09/22 15:11:25;;;;;;;8.68;8.00;;;;;;;10.16;89.30;95079.72;4951963;29;20511;-92
2021/09/22 15:13:52;;;;;;;8.90;8.00;;;;;;;10.21;89.61;95085.22;4951907;29;20027;-93
2021/09/22 15:16:18;;;;;;;14.73;8.27;;;;;;;9.95;90.37;95068.06;4953848;28;20023;-91
2021/09/22 15:18:43;;;;;;;9.60;8.70;;;;;;;9.97;91.61;95063.53;4934306;29;20417;-92
2021/09/22 15:21:09;;;;;;;10.98;10.00;;;;;;;10.08;92.25;95076.13;4944103;29;20508;-92
2021/09/22 15:23:36;;;;;;;11.38;10.38;;;;;;;9.97;92.82;95083.44;4945652;29;20027;-91
2021/09/22 15:26:01;;;;;;;38.10;12.23;;;;;;;9.95;93.57;95099.09;4949733;29;20481;-90
2021/09/22 15:28:27;;;;;;;90.13;11.13;;;;;;;10.02;94.11;95102.66;4945483;29;20020;-90
2021/09/22 15:30:52;;;;;;;6.90;6.40;;;;;;;10.04;94.11;95105.09;4948969;29;20027;-90
2021/09/22 15:33:18;;;;;;;73.25;8.15;;;;;;;9.72;93.90;95077.47;4941489;29;20020;-92
2021/09/22 15:35:43;;;;;;;5.50;5.07;;;;;;;9.83;94.37;95095.22;4939402;29;20043;-88
2021/09/22 15:38:09;;;;;;;4.65;4.25;;;;;;;9.54;94.04;95063.88;4958024;28;20183;-89
2021/09/22 15:40:34;;;;;;;5.15;4.75;;;;;;;9.45;94.07;95072.59;4940058;29;20035;-88
2021/09/22 15:43:00;;;;;;;21.08;5.57;;;;;;;9.40;94.07;95074.88;4944346;29;20034;-87
2021/09/22 15:45:28;;;;;;;4.32;4.03;;;;;;;9.56;94.45;95097.34;4932817;29;20027;-90
2021/09/22 15:47:54;;;;;;;19.42;6.63;;;;;;;9.60;94.54;95099.44;4947888;29;20023;-86
2021/09/22 15:50:20;;;;;;;5.40;5.00;;;;;;;9.69;94.43;95116.59;4950713;29;20039;-90
2021/09/22 15:52:46;;;;;;;65.82;7.63;;;;;;;9.33;94.51;95076.47;4966693;28;20031;-92
2021/09/22 15:55:11;;;;;;;10.23;5.88;;;;;;;9.40;94.46;95086.03;4951247;29;20035;-90
2021/09/22 15:57:37;;;;;;;7.72;7.07;;;;;;;9.36;94.83;95104.59;4949535;29;20035;-92
2021/09/22 16:00:04;;;;;;;8.55;7.75;;;;;;;9.24;94.38;95080.84;4950615;29;20041;-90
2021/09/22 16:02:29;;;;;;;9.90;9.02;;;;;;;9.31;95.24;95106.84;4963769;28;20497;-89
2021/09/22 16:04:55;;;;;;;7.07;6.47;;;;;;;9.36;94.66;95107.19;4950363;28;20039;-90
2021/09/22 16:07:20;;;;;;;9.55;7.65;;;;;;;9.41;94.22;95110.88;4964237;28;20509;-89
2021/09/22 16:09:46;;;;;;;8.07;7.38;;;;;;;9.23;93.98;95093.91;4948873;29;20035;-90
2021/09/22 16:12:11;;;;;;;9.23;8.35;;;;;;;9.29;94.98;95107.00;4949028;29;20097;-89
2021/09/22 16:14:36;;;;;;;10.23;9.13;;;;;;;9.32;95.06;95109.25;4932540;29;20054;-88
2021/09/22 16:17:02;;;;;;;9.93;9.13;;;;;;;9.24;96.20;95093.75;4949998;28;20086;-87
2021/09/22 16:19:31;;;;;;;26.30;11.02;;;;;;;9.23;96.50;95104.25;4948539;29;20547;-84
2021/09/22 16:22:02;;;;;;;9.25;8.48;;;;;;;9.27;96.00;95108.13;4941968;29;20035;-93
2021/09/22 16:24:30;;;;;;;9.35;8.60;;;;;;;8.84;95.83;95062.66;4932303;29;20039;-86
2021/09/22 16:26:56;;;;;;;65.45;11.77;;;;;;;9.15;95.54;95123.09;4948673;29;20086;-90
2021/09/22 16:29:27;;;;;;;11.85;10.77;;;;;;;9.05;96.30;95100.97;4947870;28;20027;-87
2021/09/22 16:31:52;;;;;;;10.60;9.60;;;;;;;8.96;95.67;95095.78;4963489;28;20122;-90